sensor_id;sensor_type;location;lat;lon;timestamp;P1;durP1;ratioP1;P2;durP2;ratioP2
31091;SDS011;67728;53.122;12.776;2023-04-25T00:00:01;296.53;;;58.10;;
31091;SDS011;67728;53.122;12.776;2023-04-25T00:01:33;297.63;;;58.17;;
31091;SDS011;67728;53.122;12.776;2023-04-25T00:03:07;297.73;;;58.60;;
31091;SDS011;67728;53.122;12.776;2023-04-25T00:04:39;296.17;;;58.30;;
31091;SDS011;67728;53.122;12.776;2023-04-25T00:06:10;296.27;;;58.33;;
31091;SDS011;67728;53.122;12.776;2023-04-25T00:07:41;297.00;;;58.60;;
31091;SDS011;67728;53.122;12.776;2023-04-25T00:09:13;294.23;;;60.97;;
31091;SDS011;67728;53.122;12.776;2023-04-25T00:10:45;295.10;;;58.30;;
31091;SDS011;67728;53.122;12.776;2023-04-25T00:12:16;295.17;;;65.37;;
31091;SDS011;67728;53.122;12.776;2023-04-25T00:13:49;297.33;;;60.63;;
31091;SDS011;67728;53.122;12.776;2023-04-25T00:15:21;293.87;;;62.53;;
31091;SDS011;67728;53.122;12.776;2023-04-25T00:16:54;296.47;;;58.83;;
31091;SDS011;67728;53.122;12.776;2023-04-25T00:18:26;292.77;;;58.50;;
31091;SDS011;67728;53.122;12.776;2023-04-25T00:19:59;292.10;;;59.07;;
31091;SDS011;67728;53.122;12.776;2023-04-25T00:21:30;290.37;;;58.63;;
31091;SDS011;67728;53.122;12.776;2023-04-25T00:23:02;289.47;;;58.60;;
31091;SDS011;67728;53.122;12.776;2023-04-25T00:24:34;277.97;;;54.80;;
31091;SDS011;67728;53.122;12.776;2023-04-25T00:26:05;293.17;;;58.33;;
31091;SDS011;67728;53.122;12.776;2023-04-25T00:27:36;292.33;;;58.13;;
31091;SDS011;67728;53.122;12.776;2023-04-25T00:29:10;294.67;;;58.43;;
31091;SDS011;67728;53.122;12.776;2023-04-25T00:30:42;294.80;;;58.67;;
31091;SDS011;67728;53.122;12.776;2023-04-25T00:32:14;292.73;;;57.77;;
31091;SDS011;67728;53.122;12.776;2023-04-25T00:33:46;295.17;;;59.73;;
31091;SDS011;67728;53.122;12.776;2023-04-25T00:35:17;293.97;;;58.60;;
31091;SDS011;67728;53.122;12.776;2023-04-25T00:36:49;292.70;;;58.80;;
31091;SDS011;67728;53.122;12.776;2023-04-25T00:38:22;293.03;;;58.87;;
31091;SDS011;67728;53.122;12.776;2023-04-25T00:39:53;293.93;;;59.07;;
31091;SDS011;67728;53.122;12.776;2023-04-25T00:41:26;291.83;;;58.07;;
31091;SDS011;67728;53.122;12.776;2023-04-25T00:42:57;283.87;;;55.30;;
31091;SDS011;67728;53.122;12.776;2023-04-25T00:44:30;276.73;;;54.17;;
31091;SDS011;67728;53.122;12.776;2023-04-25T00:46:03;284.23;;;56.10;;
31091;SDS011;67728;53.122;12.776;2023-04-25T00:47:35;289.80;;;58.20;;
31091;SDS011;67728;53.122;12.776;2023-04-25T00:49:07;291.47;;;58.77;;
31091;SDS011;67728;53.122;12.776;2023-04-25T00:50:44;290.00;;;57.80;;
31091;SDS011;67728;53.122;12.776;2023-04-25T00:52:23;289.43;;;58.07;;
31091;SDS011;67728;53.122;12.776;2023-04-25T00:53:54;280.37;;;54.63;;
31091;SDS011;67728;53.122;12.776;2023-04-25T00:55:25;281.77;;;55.17;;
31091;SDS011;67728;53.122;12.776;2023-04-25T00:56:57;280.77;;;55.90;;
31091;SDS011;67728;53.122;12.776;2023-04-25T00:58:30;284.10;;;57.60;;
31091;SDS011;67728;53.122;12.776;2023-04-25T01:00:03;281.17;;;55.63;;
31091;SDS011;67728;53.122;12.776;2023-04-25T01:01:36;283.93;;;55.90;;
31091;SDS011;67728;53.122;12.776;2023-04-25T01:03:09;277.80;;;54.53;;
31091;SDS011;67728;53.122;12.776;2023-04-25T01:04:40;280.23;;;55.20;;
31091;SDS011;67728;53.122;12.776;2023-04-25T01:06:11;291.53;;;58.30;;
31091;SDS011;67728;53.122;12.776;2023-04-25T01:07:43;291.80;;;58.60;;
31091;SDS011;67728;53.122;12.776;2023-04-25T01:09:15;291.53;;;58.07;;
31091;SDS011;67728;53.122;12.776;2023-04-25T01:10:47;291.90;;;58.70;;
31091;SDS011;67728;53.122;12.776;2023-04-25T01:12:18;294.27;;;59.07;;
31091;SDS011;67728;53.122;12.776;2023-04-25T01:13:51;294.57;;;59.50;;
31091;SDS011;67728;53.122;12.776;2023-04-25T01:15:24;293.70;;;59.03;;
31091;SDS011;67728;53.122;12.776;2023-04-25T01:16:55;294.73;;;59.40;;
31091;SDS011;67728;53.122;12.776;2023-04-25T01:18:27;295.03;;;59.47;;
31091;SDS011;67728;53.122;12.776;2023-04-25T01:19:58;296.30;;;60.20;;
31091;SDS011;67728;53.122;12.776;2023-04-25T01:21:31;295.53;;;60.60;;
31091;SDS011;67728;53.122;12.776;2023-04-25T01:23:03;294.47;;;59.80;;
31091;SDS011;67728;53.122;12.776;2023-04-25T01:24:34;292.70;;;59.03;;
31091;SDS011;67728;53.122;12.776;2023-04-25T01:26:05;294.03;;;59.27;;
31091;SDS011;67728;53.122;12.776;2023-04-25T01:27:38;292.63;;;59.03;;
31091;SDS011;67728;53.122;12.776;2023-04-25T01:29:10;291.97;;;58.43;;
31091;SDS011;67728;53.122;12.776;2023-04-25T01:30:41;280.10;;;56.40;;
31091;SDS011;67728;53.122;12.776;2023-04-25T01:32:13;281.93;;;57.53;;
31091;SDS011;67728;53.122;12.776;2023-04-25T01:33:45;292.07;;;58.60;;
31091;SDS011;67728;53.122;12.776;2023-04-25T01:35:17;289.77;;;57.73;;
31091;SDS011;67728;53.122;12.776;2023-04-25T01:36:50;289.83;;;57.70;;
31091;SDS011;67728;53.122;12.776;2023-04-25T01:38:21;292.67;;;58.63;;
31091;SDS011;67728;53.122;12.776;2023-04-25T01:39:53;286.17;;;57.70;;
31091;SDS011;67728;53.122;12.776;2023-04-25T01:41:25;290.77;;;57.93;;
31091;SDS011;67728;53.122;12.776;2023-04-25T01:42:56;290.07;;;58.67;;
31091;SDS011;67728;53.122;12.776;2023-04-25T01:44:28;298.17;;;68.37;;
31091;SDS011;67728;53.122;12.776;2023-04-25T01:46:00;296.70;;;70.87;;
31091;SDS011;67728;53.122;12.776;2023-04-25T01:47:30;291.03;;;61.50;;
31091;SDS011;67728;53.122;12.776;2023-04-25T01:49:02;290.00;;;59.73;;
31091;SDS011;67728;53.122;12.776;2023-04-25T01:50:34;290.90;;;62.20;;
31091;SDS011;67728;53.122;12.776;2023-04-25T01:52:07;287.80;;;61.87;;
31091;SDS011;67728;53.122;12.776;2023-04-25T01:53:39;293.53;;;69.70;;
31091;SDS011;67728;53.122;12.776;2023-04-25T01:55:11;296.73;;;71.40;;
31091;SDS011;67728;53.122;12.776;2023-04-25T01:56:42;291.40;;;68.13;;
31091;SDS011;67728;53.122;12.776;2023-04-25T01:58:14;281.27;;;55.07;;
31091;SDS011;67728;53.122;12.776;2023-04-25T01:59:45;287.27;;;57.37;;
31091;SDS011;67728;53.122;12.776;2023-04-25T02:01:17;282.37;;;56.87;;
31091;SDS011;67728;53.122;12.776;2023-04-25T02:02:48;292.73;;;57.43;;
31091;SDS011;67728;53.122;12.776;2023-04-25T02:04:20;295.30;;;58.43;;
31091;SDS011;67728;53.122;12.776;2023-04-25T02:05:52;294.60;;;57.70;;
31091;SDS011;67728;53.122;12.776;2023-04-25T02:07:25;292.20;;;57.43;;
31091;SDS011;67728;53.122;12.776;2023-04-25T02:08:57;289.77;;;57.20;;
31091;SDS011;67728;53.122;12.776;2023-04-25T02:10:29;279.73;;;56.10;;
31091;SDS011;67728;53.122;12.776;2023-04-25T02:12:00;280.00;;;55.57;;
31091;SDS011;67728;53.122;12.776;2023-04-25T02:13:32;277.33;;;55.10;;
31091;SDS011;67728;53.122;12.776;2023-04-25T02:15:04;282.40;;;56.43;;
31091;SDS011;67728;53.122;12.776;2023-04-25T02:16:37;292.27;;;56.93;;
31091;SDS011;67728;53.122;12.776;2023-04-25T02:18:09;292.77;;;57.47;;
31091;SDS011;67728;53.122;12.776;2023-04-25T02:19:41;291.23;;;57.93;;
31091;SDS011;67728;53.122;12.776;2023-04-25T02:21:13;290.00;;;57.50;;
31091;SDS011;67728;53.122;12.776;2023-04-25T02:22:45;283.90;;;56.63;;
31091;SDS011;67728;53.122;12.776;2023-04-25T02:24:16;276.83;;;54.90;;
31091;SDS011;67728;53.122;12.776;2023-04-25T02:25:48;279.20;;;55.97;;
31091;SDS011;67728;53.122;12.776;2023-04-25T02:27:20;288.60;;;57.23;;
31091;SDS011;67728;53.122;12.776;2023-04-25T02:28:50;293.40;;;57.87;;
31091;SDS011;67728;53.122;12.776;2023-04-25T02:30:22;282.70;;;57.67;;
31091;SDS011;67728;53.122;12.776;2023-04-25T02:31:54;293.87;;;57.97;;
31091;SDS011;67728;53.122;12.776;2023-04-25T02:33:26;292.63;;;57.43;;
31091;SDS011;67728;53.122;12.776;2023-04-25T02:34:57;292.57;;;57.67;;
31091;SDS011;67728;53.122;12.776;2023-04-25T02:36:33;291.20;;;57.63;;
31091;SDS011;67728;53.122;12.776;2023-04-25T02:38:06;280.10;;;56.10;;
31091;SDS011;67728;53.122;12.776;2023-04-25T02:39:38;280.83;;;55.10;;
31091;SDS011;67728;53.122;12.776;2023-04-25T02:41:10;288.37;;;57.37;;
31091;SDS011;67728;53.122;12.776;2023-04-25T02:42:42;278.87;;;55.23;;
31091;SDS011;67728;53.122;12.776;2023-04-25T02:44:15;292.83;;;57.33;;
31091;SDS011;67728;53.122;12.776;2023-04-25T02:45:47;292.93;;;58.07;;
31091;SDS011;67728;53.122;12.776;2023-04-25T02:47:18;292.30;;;58.03;;
31091;SDS011;67728;53.122;12.776;2023-04-25T02:48:50;284.53;;;56.80;;
31091;SDS011;67728;53.122;12.776;2023-04-25T02:50:21;286.10;;;57.07;;
31091;SDS011;67728;53.122;12.776;2023-04-25T02:51:53;279.50;;;56.73;;
31091;SDS011;67728;53.122;12.776;2023-04-25T02:53:26;279.63;;;56.10;;
31091;SDS011;67728;53.122;12.776;2023-04-25T02:54:57;294.83;;;57.57;;
31091;SDS011;67728;53.122;12.776;2023-04-25T02:56:29;293.90;;;57.77;;
31091;SDS011;67728;53.122;12.776;2023-04-25T02:58:00;293.80;;;58.77;;
31091;SDS011;67728;53.122;12.776;2023-04-25T02:59:32;283.00;;;58.27;;
31091;SDS011;67728;53.122;12.776;2023-04-25T03:01:03;292.30;;;58.10;;
31091;SDS011;67728;53.122;12.776;2023-04-25T03:02:34;294.40;;;57.20;;
31091;SDS011;67728;53.122;12.776;2023-04-25T03:04:05;295.30;;;57.50;;
31091;SDS011;67728;53.122;12.776;2023-04-25T03:05:37;292.57;;;57.37;;
31091;SDS011;67728;53.122;12.776;2023-04-25T03:07:08;294.90;;;57.70;;
31091;SDS011;67728;53.122;12.776;2023-04-25T03:08:42;294.33;;;57.33;;
31091;SDS011;67728;53.122;12.776;2023-04-25T03:10:14;293.90;;;57.17;;
31091;SDS011;67728;53.122;12.776;2023-04-25T03:11:45;292.73;;;57.10;;
31091;SDS011;67728;53.122;12.776;2023-04-25T03:13:17;293.33;;;56.17;;
31091;SDS011;67728;53.122;12.776;2023-04-25T03:14:49;296.13;;;57.17;;
31091;SDS011;67728;53.122;12.776;2023-04-25T03:16:20;293.30;;;57.13;;
31091;SDS011;67728;53.122;12.776;2023-04-25T03:17:52;296.37;;;57.60;;
31091;SDS011;67728;53.122;12.776;2023-04-25T03:19:24;295.63;;;57.33;;
31091;SDS011;67728;53.122;12.776;2023-04-25T03:20:56;295.97;;;57.03;;
31091;SDS011;67728;53.122;12.776;2023-04-25T03:22:27;293.80;;;57.10;;
31091;SDS011;67728;53.122;12.776;2023-04-25T03:24:00;293.90;;;56.33;;
31091;SDS011;67728;53.122;12.776;2023-04-25T03:25:33;294.30;;;56.90;;
31091;SDS011;67728;53.122;12.776;2023-04-25T03:27:05;299.43;;;58.23;;
31091;SDS011;67728;53.122;12.776;2023-04-25T03:28:36;294.77;;;56.57;;
31091;SDS011;67728;53.122;12.776;2023-04-25T03:30:09;295.97;;;57.43;;
31091;SDS011;67728;53.122;12.776;2023-04-25T03:31:41;295.63;;;56.80;;
31091;SDS011;67728;53.122;12.776;2023-04-25T03:33:12;298.43;;;57.10;;
31091;SDS011;67728;53.122;12.776;2023-04-25T03:34:44;299.47;;;57.07;;
31091;SDS011;67728;53.122;12.776;2023-04-25T03:36:15;295.33;;;56.20;;
31091;SDS011;67728;53.122;12.776;2023-04-25T03:37:47;294.30;;;56.20;;
31091;SDS011;67728;53.122;12.776;2023-04-25T03:39:19;294.17;;;56.10;;
31091;SDS011;67728;53.122;12.776;2023-04-25T03:40:51;298.23;;;57.20;;
31091;SDS011;67728;53.122;12.776;2023-04-25T03:42:23;297.43;;;56.97;;
31091;SDS011;67728;53.122;12.776;2023-04-25T03:43:54;297.57;;;57.10;;
31091;SDS011;67728;53.122;12.776;2023-04-25T03:45:25;296.40;;;58.60;;
31091;SDS011;67728;53.122;12.776;2023-04-25T03:46:57;297.10;;;57.27;;
31091;SDS011;67728;53.122;12.776;2023-04-25T03:48:28;296.83;;;57.33;;
31091;SDS011;67728;53.122;12.776;2023-04-25T03:50:00;300.10;;;57.87;;
31091;SDS011;67728;53.122;12.776;2023-04-25T03:51:32;294.57;;;56.53;;
31091;SDS011;67728;53.122;12.776;2023-04-25T03:53:03;295.10;;;56.67;;
31091;SDS011;67728;53.122;12.776;2023-04-25T03:54:36;293.17;;;56.17;;
31091;SDS011;67728;53.122;12.776;2023-04-25T03:56:08;294.30;;;56.93;;
31091;SDS011;67728;53.122;12.776;2023-04-25T03:57:39;293.83;;;59.97;;
31091;SDS011;67728;53.122;12.776;2023-04-25T03:59:11;292.67;;;56.43;;
31091;SDS011;67728;53.122;12.776;2023-04-25T04:00:42;294.37;;;55.73;;
31091;SDS011;67728;53.122;12.776;2023-04-25T04:02:14;293.10;;;55.63;;
31091;SDS011;67728;53.122;12.776;2023-04-25T04:03:46;296.30;;;62.87;;
31091;SDS011;67728;53.122;12.776;2023-04-25T04:05:17;296.87;;;56.23;;
31091;SDS011;67728;53.122;12.776;2023-04-25T04:06:49;291.47;;;55.27;;
31091;SDS011;67728;53.122;12.776;2023-04-25T04:08:22;291.60;;;55.50;;
31091;SDS011;67728;53.122;12.776;2023-04-25T04:09:55;307.33;;;59.53;;
31091;SDS011;67728;53.122;12.776;2023-04-25T04:11:27;332.13;;;64.50;;
31091;SDS011;67728;53.122;12.776;2023-04-25T04:12:59;295.23;;;58.37;;
31091;SDS011;67728;53.122;12.776;2023-04-25T04:14:30;296.43;;;59.00;;
31091;SDS011;67728;53.122;12.776;2023-04-25T04:16:02;297.50;;;59.00;;
31091;SDS011;67728;53.122;12.776;2023-04-25T04:17:34;295.73;;;58.53;;
31091;SDS011;67728;53.122;12.776;2023-04-25T04:19:05;296.50;;;58.40;;
31091;SDS011;67728;53.122;12.776;2023-04-25T04:20:37;293.47;;;57.57;;
31091;SDS011;67728;53.122;12.776;2023-04-25T04:22:09;293.63;;;56.93;;
31091;SDS011;67728;53.122;12.776;2023-04-25T04:23:41;293.93;;;57.30;;
31091;SDS011;67728;53.122;12.776;2023-04-25T04:25:14;295.13;;;58.00;;
31091;SDS011;67728;53.122;12.776;2023-04-25T04:26:45;293.87;;;58.23;;
31091;SDS011;67728;53.122;12.776;2023-04-25T04:28:17;291.90;;;57.43;;
31091;SDS011;67728;53.122;12.776;2023-04-25T04:29:49;290.63;;;57.67;;
31091;SDS011;67728;53.122;12.776;2023-04-25T04:31:22;291.50;;;59.27;;
31091;SDS011;67728;53.122;12.776;2023-04-25T04:32:54;295.40;;;58.93;;
31091;SDS011;67728;53.122;12.776;2023-04-25T04:34:26;297.53;;;59.07;;
31091;SDS011;67728;53.122;12.776;2023-04-25T04:35:57;292.30;;;58.63;;
31091;SDS011;67728;53.122;12.776;2023-04-25T04:37:29;294.40;;;57.33;;
31091;SDS011;67728;53.122;12.776;2023-04-25T04:39:01;294.23;;;57.70;;
31091;SDS011;67728;53.122;12.776;2023-04-25T04:40:34;293.80;;;57.67;;
31091;SDS011;67728;53.122;12.776;2023-04-25T04:42:06;295.80;;;58.30;;
31091;SDS011;67728;53.122;12.776;2023-04-25T04:43:38;300.70;;;58.00;;
31091;SDS011;67728;53.122;12.776;2023-04-25T04:45:10;297.27;;;58.47;;
31091;SDS011;67728;53.122;12.776;2023-04-25T04:46:43;293.17;;;56.57;;
31091;SDS011;67728;53.122;12.776;2023-04-25T04:48:14;292.53;;;57.40;;
31091;SDS011;67728;53.122;12.776;2023-04-25T04:49:46;291.83;;;57.17;;
31091;SDS011;67728;53.122;12.776;2023-04-25T04:51:17;294.10;;;57.77;;
31091;SDS011;67728;53.122;12.776;2023-04-25T04:52:49;293.40;;;57.43;;
31091;SDS011;67728;53.122;12.776;2023-04-25T04:54:21;294.27;;;57.73;;
31091;SDS011;67728;53.122;12.776;2023-04-25T04:55:54;294.83;;;58.23;;
31091;SDS011;67728;53.122;12.776;2023-04-25T04:57:25;291.83;;;57.13;;
31091;SDS011;67728;53.122;12.776;2023-04-25T04:58:56;297.20;;;59.00;;
31091;SDS011;67728;53.122;12.776;2023-04-25T05:00:28;294.07;;;57.50;;
31091;SDS011;67728;53.122;12.776;2023-04-25T05:02:00;294.50;;;57.90;;
31091;SDS011;67728;53.122;12.776;2023-04-25T05:03:32;294.40;;;57.57;;
31091;SDS011;67728;53.122;12.776;2023-04-25T05:05:04;293.13;;;57.80;;
31091;SDS011;67728;53.122;12.776;2023-04-25T05:06:36;293.77;;;56.57;;
31091;SDS011;67728;53.122;12.776;2023-04-25T05:08:07;298.20;;;57.43;;
31091;SDS011;67728;53.122;12.776;2023-04-25T05:09:39;293.87;;;55.90;;
31091;SDS011;67728;53.122;12.776;2023-04-25T05:11:12;293.90;;;55.93;;
31091;SDS011;67728;53.122;12.776;2023-04-25T05:12:44;295.17;;;55.93;;
31091;SDS011;67728;53.122;12.776;2023-04-25T05:14:15;293.37;;;55.57;;
31091;SDS011;67728;53.122;12.776;2023-04-25T05:15:48;291.93;;;55.20;;
31091;SDS011;67728;53.122;12.776;2023-04-25T05:17:19;292.97;;;55.53;;
31091;SDS011;67728;53.122;12.776;2023-04-25T05:18:51;293.63;;;55.37;;
31091;SDS011;67728;53.122;12.776;2023-04-25T05:20:22;297.57;;;56.33;;
31091;SDS011;67728;53.122;12.776;2023-04-25T05:21:54;295.13;;;55.63;;
31091;SDS011;67728;53.122;12.776;2023-04-25T05:23:26;294.83;;;55.53;;
31091;SDS011;67728;53.122;12.776;2023-04-25T05:25:00;293.20;;;55.20;;
31091;SDS011;67728;53.122;12.776;2023-04-25T05:26:33;294.00;;;55.53;;
31091;SDS011;67728;53.122;12.776;2023-04-25T05:28:05;293.67;;;55.30;;
31091;SDS011;67728;53.122;12.776;2023-04-25T05:29:37;292.33;;;54.87;;
31091;SDS011;67728;53.122;12.776;2023-04-25T05:31:09;292.50;;;54.83;;
31091;SDS011;67728;53.122;12.776;2023-04-25T05:32:41;293.10;;;55.33;;
31091;SDS011;67728;53.122;12.776;2023-04-25T05:34:12;299.60;;;57.00;;
31091;SDS011;67728;53.122;12.776;2023-04-25T05:35:44;294.17;;;55.40;;
31091;SDS011;67728;53.122;12.776;2023-04-25T05:37:16;292.77;;;55.33;;
31091;SDS011;67728;53.122;12.776;2023-04-25T05:38:48;293.27;;;57.07;;
31091;SDS011;67728;53.122;12.776;2023-04-25T05:40:19;294.67;;;57.90;;
31091;SDS011;67728;53.122;12.776;2023-04-25T05:41:52;293.43;;;56.70;;
31091;SDS011;67728;53.122;12.776;2023-04-25T05:43:24;294.73;;;57.03;;
31091;SDS011;67728;53.122;12.776;2023-04-25T05:44:56;294.10;;;56.50;;
31091;SDS011;67728;53.122;12.776;2023-04-25T05:46:27;296.30;;;56.60;;
31091;SDS011;67728;53.122;12.776;2023-04-25T05:47:59;294.40;;;56.47;;
31091;SDS011;67728;53.122;12.776;2023-04-25T05:49:31;294.30;;;57.13;;
31091;SDS011;67728;53.122;12.776;2023-04-25T05:51:02;295.17;;;57.40;;
31091;SDS011;67728;53.122;12.776;2023-04-25T05:52:34;292.87;;;57.67;;
31091;SDS011;67728;53.122;12.776;2023-04-25T05:54:06;293.47;;;57.10;;
31091;SDS011;67728;53.122;12.776;2023-04-25T05:55:37;294.50;;;57.23;;
31091;SDS011;67728;53.122;12.776;2023-04-25T05:57:19;293.27;;;55.87;;
31091;SDS011;67728;53.122;12.776;2023-04-25T05:58:55;294.77;;;55.90;;
31091;SDS011;67728;53.122;12.776;2023-04-25T06:00:27;293.33;;;57.00;;
31091;SDS011;67728;53.122;12.776;2023-04-25T06:01:59;294.63;;;57.70;;
31091;SDS011;67728;53.122;12.776;2023-04-25T06:03:30;293.57;;;57.37;;
31091;SDS011;67728;53.122;12.776;2023-04-25T06:05:02;292.83;;;57.50;;
31091;SDS011;67728;53.122;12.776;2023-04-25T06:06:34;294.17;;;57.70;;
31091;SDS011;67728;53.122;12.776;2023-04-25T06:08:06;295.10;;;58.40;;
31091;SDS011;67728;53.122;12.776;2023-04-25T06:09:37;292.77;;;57.73;;
31091;SDS011;67728;53.122;12.776;2023-04-25T06:11:10;295.73;;;58.43;;
31091;SDS011;67728;53.122;12.776;2023-04-25T06:12:43;297.63;;;58.93;;
31091;SDS011;67728;53.122;12.776;2023-04-25T06:14:14;295.13;;;57.97;;
31091;SDS011;67728;53.122;12.776;2023-04-25T06:15:46;309.87;;;61.57;;
31091;SDS011;67728;53.122;12.776;2023-04-25T06:17:18;301.10;;;59.70;;
31091;SDS011;67728;53.122;12.776;2023-04-25T06:18:49;295.23;;;59.47;;
31091;SDS011;67728;53.122;12.776;2023-04-25T06:20:21;296.60;;;60.03;;
31091;SDS011;67728;53.122;12.776;2023-04-25T06:21:54;292.40;;;59.03;;
31091;SDS011;67728;53.122;12.776;2023-04-25T06:23:25;295.43;;;62.83;;
31091;SDS011;67728;53.122;12.776;2023-04-25T06:24:57;301.50;;;63.17;;
31091;SDS011;67728;53.122;12.776;2023-04-25T06:26:30;292.17;;;58.17;;
31091;SDS011;67728;53.122;12.776;2023-04-25T06:28:03;294.47;;;56.30;;
31091;SDS011;67728;53.122;12.776;2023-04-25T06:29:35;293.63;;;55.90;;
31091;SDS011;67728;53.122;12.776;2023-04-25T06:31:06;293.87;;;56.10;;
31091;SDS011;67728;53.122;12.776;2023-04-25T06:32:38;293.47;;;57.87;;
31091;SDS011;67728;53.122;12.776;2023-04-25T06:34:10;292.70;;;61.97;;
31091;SDS011;67728;53.122;12.776;2023-04-25T06:35:41;291.63;;;55.37;;
31091;SDS011;67728;53.122;12.776;2023-04-25T06:37:13;290.33;;;55.47;;
31091;SDS011;67728;53.122;12.776;2023-04-25T06:38:45;292.17;;;56.33;;
31091;SDS011;67728;53.122;12.776;2023-04-25T06:40:16;292.23;;;55.30;;
31091;SDS011;67728;53.122;12.776;2023-04-25T06:41:48;290.70;;;56.20;;
31091;SDS011;67728;53.122;12.776;2023-04-25T06:43:21;294.70;;;57.07;;
31091;SDS011;67728;53.122;12.776;2023-04-25T06:44:53;291.83;;;55.40;;
31091;SDS011;67728;53.122;12.776;2023-04-25T06:46:25;292.07;;;55.70;;
31091;SDS011;67728;53.122;12.776;2023-04-25T06:47:57;296.67;;;56.53;;
31091;SDS011;67728;53.122;12.776;2023-04-25T06:49:29;293.70;;;56.30;;
31091;SDS011;67728;53.122;12.776;2023-04-25T06:51:00;292.77;;;55.80;;
31091;SDS011;67728;53.122;12.776;2023-04-25T06:52:32;292.67;;;58.37;;
31091;SDS011;67728;53.122;12.776;2023-04-25T06:54:04;293.47;;;55.63;;
31091;SDS011;67728;53.122;12.776;2023-04-25T06:55:36;292.97;;;57.50;;
31091;SDS011;67728;53.122;12.776;2023-04-25T06:57:07;292.53;;;58.07;;
31091;SDS011;67728;53.122;12.776;2023-04-25T06:58:40;293.67;;;57.23;;
31091;SDS011;67728;53.122;12.776;2023-04-25T07:00:13;294.67;;;57.80;;
31091;SDS011;67728;53.122;12.776;2023-04-25T07:01:45;293.20;;;57.73;;
31091;SDS011;67728;53.122;12.776;2023-04-25T07:03:17;301.97;;;60.17;;
31091;SDS011;67728;53.122;12.776;2023-04-25T07:04:48;293.17;;;57.60;;
31091;SDS011;67728;53.122;12.776;2023-04-25T07:06:20;291.00;;;57.43;;
31091;SDS011;67728;53.122;12.776;2023-04-25T07:07:52;294.30;;;57.13;;
31091;SDS011;67728;53.122;12.776;2023-04-25T07:09:23;295.53;;;59.37;;
31091;SDS011;67728;53.122;12.776;2023-04-25T07:10:55;296.90;;;59.87;;
31091;SDS011;67728;53.122;12.776;2023-04-25T07:12:27;299.03;;;59.67;;
31091;SDS011;67728;53.122;12.776;2023-04-25T07:14:00;294.57;;;59.17;;
31091;SDS011;67728;53.122;12.776;2023-04-25T07:15:32;293.30;;;57.63;;
31091;SDS011;67728;53.122;12.776;2023-04-25T07:17:04;294.00;;;57.70;;
31091;SDS011;67728;53.122;12.776;2023-04-25T07:18:36;293.13;;;57.50;;
31091;SDS011;67728;53.122;12.776;2023-04-25T07:20:08;298.20;;;58.60;;
31091;SDS011;67728;53.122;12.776;2023-04-25T07:21:40;290.77;;;57.30;;
31091;SDS011;67728;53.122;12.776;2023-04-25T07:23:12;303.43;;;60.37;;
31091;SDS011;67728;53.122;12.776;2023-04-25T07:24:43;295.80;;;59.57;;
31091;SDS011;67728;53.122;12.776;2023-04-25T07:26:18;292.07;;;57.63;;
31091;SDS011;67728;53.122;12.776;2023-04-25T07:27:50;294.40;;;57.37;;
31091;SDS011;67728;53.122;12.776;2023-04-25T07:29:23;295.13;;;59.60;;
31091;SDS011;67728;53.122;12.776;2023-04-25T07:30:55;293.23;;;58.93;;
31091;SDS011;67728;53.122;12.776;2023-04-25T07:32:29;292.60;;;58.83;;
31091;SDS011;67728;53.122;12.776;2023-04-25T07:34:01;296.27;;;59.83;;
31091;SDS011;67728;53.122;12.776;2023-04-25T07:35:32;296.00;;;60.50;;
31091;SDS011;67728;53.122;12.776;2023-04-25T07:37:04;301.50;;;61.83;;
31091;SDS011;67728;53.122;12.776;2023-04-25T07:38:36;294.60;;;59.57;;
31091;SDS011;67728;53.122;12.776;2023-04-25T07:40:08;294.57;;;59.77;;
31091;SDS011;67728;53.122;12.776;2023-04-25T07:41:40;294.57;;;58.50;;
31091;SDS011;67728;53.122;12.776;2023-04-25T07:43:12;297.40;;;61.17;;
31091;SDS011;67728;53.122;12.776;2023-04-25T07:44:47;298.30;;;60.80;;
31091;SDS011;67728;53.122;12.776;2023-04-25T07:46:21;291.97;;;59.50;;
31091;SDS011;67728;53.122;12.776;2023-04-25T07:47:53;296.50;;;60.20;;
31091;SDS011;67728;53.122;12.776;2023-04-25T07:49:24;297.10;;;60.50;;
31091;SDS011;67728;53.122;12.776;2023-04-25T07:50:56;293.67;;;59.60;;
31091;SDS011;67728;53.122;12.776;2023-04-25T07:52:28;296.13;;;59.47;;
31091;SDS011;67728;53.122;12.776;2023-04-25T07:54:00;294.93;;;59.40;;
31091;SDS011;67728;53.122;12.776;2023-04-25T07:55:31;295.07;;;59.07;;
31091;SDS011;67728;53.122;12.776;2023-04-25T07:57:03;298.70;;;60.00;;
31091;SDS011;67728;53.122;12.776;2023-04-25T07:58:36;297.80;;;59.73;;
31091;SDS011;67728;53.122;12.776;2023-04-25T08:00:11;299.97;;;65.63;;
31091;SDS011;67728;53.122;12.776;2023-04-25T08:01:45;296.23;;;60.50;;
31091;SDS011;67728;53.122;12.776;2023-04-25T08:03:16;294.80;;;59.00;;
31091;SDS011;67728;53.122;12.776;2023-04-25T08:04:48;295.47;;;59.80;;
31091;SDS011;67728;53.122;12.776;2023-04-25T08:06:20;297.47;;;59.90;;
31091;SDS011;67728;53.122;12.776;2023-04-25T08:07:52;296.53;;;59.90;;
31091;SDS011;67728;53.122;12.776;2023-04-25T08:09:23;294.20;;;59.50;;
31091;SDS011;67728;53.122;12.776;2023-04-25T08:10:56;294.87;;;60.40;;
31091;SDS011;67728;53.122;12.776;2023-04-25T08:12:28;294.80;;;59.37;;
31091;SDS011;67728;53.122;12.776;2023-04-25T08:13:59;294.67;;;59.87;;
31091;SDS011;67728;53.122;12.776;2023-04-25T08:15:33;295.47;;;65.03;;
31091;SDS011;67728;53.122;12.776;2023-04-25T08:17:04;296.27;;;60.53;;
31091;SDS011;67728;53.122;12.776;2023-04-25T08:18:36;301.23;;;61.50;;
31091;SDS011;67728;53.122;12.776;2023-04-25T08:20:08;294.90;;;60.10;;
31091;SDS011;67728;53.122;12.776;2023-04-25T08:21:40;294.90;;;61.20;;
31091;SDS011;67728;53.122;12.776;2023-04-25T08:23:12;297.53;;;63.37;;
31091;SDS011;67728;53.122;12.776;2023-04-25T08:24:44;296.60;;;62.63;;
31091;SDS011;67728;53.122;12.776;2023-04-25T08:26:16;296.60;;;62.50;;
31091;SDS011;67728;53.122;12.776;2023-04-25T08:27:47;296.50;;;61.03;;
31091;SDS011;67728;53.122;12.776;2023-04-25T08:29:19;296.37;;;60.10;;
31091;SDS011;67728;53.122;12.776;2023-04-25T08:30:52;296.10;;;59.37;;
31091;SDS011;67728;53.122;12.776;2023-04-25T08:32:24;294.20;;;59.30;;
31091;SDS011;67728;53.122;12.776;2023-04-25T08:33:55;296.43;;;59.87;;
31091;SDS011;67728;53.122;12.776;2023-04-25T08:35:27;294.67;;;58.43;;
31091;SDS011;67728;53.122;12.776;2023-04-25T08:36:59;294.60;;;58.73;;
31091;SDS011;67728;53.122;12.776;2023-04-25T08:38:31;295.77;;;58.63;;
31091;SDS011;67728;53.122;12.776;2023-04-25T08:40:03;297.10;;;58.67;;
31091;SDS011;67728;53.122;12.776;2023-04-25T08:41:37;294.63;;;59.73;;